sensor_id;sensor_type;location;lat;lon;timestamp;temperature;humidity
10812;DHT22;5458;51.496;7.334;2022-10-31T00:01:25;16.50;99.90
10812;DHT22;5458;51.496;7.334;2022-10-31T00:03:51;16.50;99.90
10812;DHT22;5458;51.496;7.334;2022-10-31T00:06:16;16.60;99.90
10812;DHT22;5458;51.496;7.334;2022-10-31T00:09:02;16.60;99.90
10812;DHT22;5458;51.496;7.334;2022-10-31T00:11:28;16.60;99.90
10812;DHT22;5458;51.496;7.334;2022-10-31T00:13:54;16.60;99.90
10812;DHT22;5458;51.496;7.334;2022-10-31T00:16:22;16.60;99.90
10812;DHT22;5458;51.496;7.334;2022-10-31T00:18:52;16.60;99.90
10812;DHT22;5458;51.496;7.334;2022-10-31T00:21:19;16.60;99.90
10812;DHT22;5458;51.496;7.334;2022-10-31T00:23:45;16.60;99.90
10812;DHT22;5458;51.496;7.334;2022-10-31T00:26:10;16.70;99.90
10812;DHT22;5458;51.496;7.334;2022-10-31T00:28:36;16.60;99.90
10812;DHT22;5458;51.496;7.334;2022-10-31T00:31:04;16.60;99.90
10812;DHT22;5458;51.496;7.334;2022-10-31T00:33:30;16.70;99.90
10812;DHT22;5458;51.496;7.334;2022-10-31T00:35:56;16.70;99.90
10812;DHT22;5458;51.496;7.334;2022-10-31T00:38:22;16.60;99.90
10812;DHT22;5458;51.496;7.334;2022-10-31T00:40:48;16.70;99.90
10812;DHT22;5458;51.496;7.334;2022-10-31T00:43:13;16.70;99.90
10812;DHT22;5458;51.496;7.334;2022-10-31T00:45:39;16.60;99.90
10812;DHT22;5458;51.496;7.334;2022-10-31T00:48:05;16.60;99.90
10812;DHT22;5458;51.496;7.334;2022-10-31T00:50:30;16.70;99.90
10812;DHT22;5458;51.496;7.334;2022-10-31T00:52:56;16.70;99.90
10812;DHT22;5458;51.496;7.334;2022-10-31T00:55:22;16.60;99.90
10812;DHT22;5458;51.496;7.334;2022-10-31T00:57:47;16.60;99.90
10812;DHT22;5458;51.496;7.334;2022-10-31T01:00:13;16.60;99.90
10812;DHT22;5458;51.496;7.334;2022-10-31T01:02:39;16.60;99.90
10812;DHT22;5458;51.496;7.334;2022-10-31T01:05:05;16.50;99.90
10812;DHT22;5458;51.496;7.334;2022-10-31T01:07:30;16.50;99.90
10812;DHT22;5458;51.496;7.334;2022-10-31T01:09:56;16.50;99.90
10812;DHT22;5458;51.496;7.334;2022-10-31T01:12:22;16.50;99.90
10812;DHT22;5458;51.496;7.334;2022-10-31T01:14:47;16.50;99.90
10812;DHT22;5458;51.496;7.334;2022-10-31T01:17:13;16.50;99.90
10812;DHT22;5458;51.496;7.334;2022-10-31T01:19:39;16.50;99.90
10812;DHT22;5458;51.496;7.334;2022-10-31T01:22:05;16.50;99.90
10812;DHT22;5458;51.496;7.334;2022-10-31T01:24:31;16.50;99.90
10812;DHT22;5458;51.496;7.334;2022-10-31T01:26:56;16.40;99.90
10812;DHT22;5458;51.496;7.334;2022-10-31T01:29:22;16.50;99.90
10812;DHT22;5458;51.496;7.334;2022-10-31T01:31:47;16.50;99.90
10812;DHT22;5458;51.496;7.334;2022-10-31T01:34:15;16.50;99.90
10812;DHT22;5458;51.496;7.334;2022-10-31T01:36:41;16.50;99.90
10812;DHT22;5458;51.496;7.334;2022-10-31T01:39:12;16.50;99.90
10812;DHT22;5458;51.496;7.334;2022-10-31T01:41:42;16.50;99.90
10812;DHT22;5458;51.496;7.334;2022-10-31T01:46:46;16.50;99.90
10812;DHT22;5458;51.496;7.334;2022-10-31T01:49:20;16.50;99.90
10812;DHT22;5458;51.496;7.334;2022-10-31T01:52:38;16.50;99.90
10812;DHT22;5458;51.496;7.334;2022-10-31T01:54:47;16.50;99.90
10812;DHT22;5458;51.496;7.334;2022-10-31T01:57:14;16.50;99.90
10812;DHT22;5458;51.496;7.334;2022-10-31T01:59:47;16.50;99.90
10812;DHT22;5458;51.496;7.334;2022-10-31T02:02:15;16.50;99.90
10812;DHT22;5458;51.496;7.334;2022-10-31T02:04:41;16.50;99.90
10812;DHT22;5458;51.496;7.334;2022-10-31T02:07:27;16.50;99.90
10812;DHT22;5458;51.496;7.334;2022-10-31T02:09:56;16.40;99.90
10812;DHT22;5458;51.496;7.334;2022-10-31T02:12:23;16.40;99.90
10812;DHT22;5458;51.496;7.334;2022-10-31T02:14:49;16.40;99.90
10812;DHT22;5458;51.496;7.334;2022-10-31T02:17:15;16.30;99.90
10812;DHT22;5458;51.496;7.334;2022-10-31T02:20:19;16.30;99.90
10812;DHT22;5458;51.496;7.334;2022-10-31T02:29:13;16.10;99.90
10812;DHT22;5458;51.496;7.334;2022-10-31T02:32:04;16.10;99.90
10812;DHT22;5458;51.496;7.334;2022-10-31T02:35:02;16.00;99.90
10812;DHT22;5458;51.496;7.334;2022-10-31T02:40:26;15.90;99.90
10812;DHT22;5458;51.496;7.334;2022-10-31T02:45:44;15.80;99.90
10812;DHT22;5458;51.496;7.334;2022-10-31T02:48:15;15.70;99.90
10812;DHT22;5458;51.496;7.334;2022-10-31T02:50:49;15.70;99.90
10812;DHT22;5458;51.496;7.334;2022-10-31T02:53:16;15.70;99.90
10812;DHT22;5458;51.496;7.334;2022-10-31T02:58:19;15.60;99.90
10812;DHT22;5458;51.496;7.334;2022-10-31T03:03:34;15.50;99.90
10812;DHT22;5458;51.496;7.334;2022-10-31T03:06:30;15.50;99.90
10812;DHT22;5458;51.496;7.334;2022-10-31T03:14:45;15.40;99.90
10812;DHT22;5458;51.496;7.334;2022-10-31T03:17:24;15.40;99.90
10812;DHT22;5458;51.496;7.334;2022-10-31T03:19:54;15.30;99.90
10812;DHT22;5458;51.496;7.334;2022-10-31T03:22:22;15.30;99.90
10812;DHT22;5458;51.496;7.334;2022-10-31T03:24:50;15.30;99.90
10812;DHT22;5458;51.496;7.334;2022-10-31T03:27:20;15.40;99.90
10812;DHT22;5458;51.496;7.334;2022-10-31T03:29:47;15.40;99.90
10812;DHT22;5458;51.496;7.334;2022-10-31T03:32:21;15.50;99.90
10812;DHT22;5458;51.496;7.334;2022-10-31T03:34:48;15.50;99.90
10812;DHT22;5458;51.496;7.334;2022-10-31T03:37:18;15.50;99.90
10812;DHT22;5458;51.496;7.334;2022-10-31T03:39:46;15.40;99.90
10812;DHT22;5458;51.496;7.334;2022-10-31T03:42:33;15.40;99.90
10812;DHT22;5458;51.496;7.334;2022-10-31T03:47:28;15.30;99.90
10812;DHT22;5458;51.496;7.334;2022-10-31T03:49:54;15.30;99.90
10812;DHT22;5458;51.496;7.334;2022-10-31T03:53:09;15.30;99.90
10812;DHT22;5458;51.496;7.334;2022-10-31T03:55:24;15.30;99.90
10812;DHT22;5458;51.496;7.334;2022-10-31T03:58:04;15.20;99.90
10812;DHT22;5458;51.496;7.334;2022-10-31T04:00:34;15.20;99.90
10812;DHT22;5458;51.496;7.334;2022-10-31T04:03:05;15.10;99.90
10812;DHT22;5458;51.496;7.334;2022-10-31T04:05:33;15.10;99.90
10812;DHT22;5458;51.496;7.334;2022-10-31T04:08:01;15.10;99.90
10812;DHT22;5458;51.496;7.334;2022-10-31T04:10:29;15.10;99.90
10812;DHT22;5458;51.496;7.334;2022-10-31T04:13:06;15.00;99.90
10812;DHT22;5458;51.496;7.334;2022-10-31T04:15:33;15.00;99.90
10812;DHT22;5458;51.496;7.334;2022-10-31T04:18:01;15.00;99.90
10812;DHT22;5458;51.496;7.334;2022-10-31T04:20:33;15.00;99.90
10812;DHT22;5458;51.496;7.334;2022-10-31T04:23:00;14.90;99.90
10812;DHT22;5458;51.496;7.334;2022-10-31T04:25:26;14.90;99.90
10812;DHT22;5458;51.496;7.334;2022-10-31T04:27:52;14.90;99.90
10812;DHT22;5458;51.496;7.334;2022-10-31T04:30:17;14.80;99.90
10812;DHT22;5458;51.496;7.334;2022-10-31T04:32:43;14.80;99.90
10812;DHT22;5458;51.496;7.334;2022-10-31T04:35:08;14.80;99.90
10812;DHT22;5458;51.496;7.334;2022-10-31T04:37:34;14.80;99.90
10812;DHT22;5458;51.496;7.334;2022-10-31T04:39:59;14.80;99.90
10812;DHT22;5458;51.496;7.334;2022-10-31T04:42:26;14.70;99.90
10812;DHT22;5458;51.496;7.334;2022-10-31T04:44:53;14.70;99.90
10812;DHT22;5458;51.496;7.334;2022-10-31T04:47:19;14.70;99.90
10812;DHT22;5458;51.496;7.334;2022-10-31T04:49:44;14.70;99.90
10812;DHT22;5458;51.496;7.334;2022-10-31T04:52:10;14.70;99.90
10812;DHT22;5458;51.496;7.334;2022-10-31T04:54:36;14.70;99.90
10812;DHT22;5458;51.496;7.334;2022-10-31T04:57:01;14.70;99.90
10812;DHT22;5458;51.496;7.334;2022-10-31T04:59:27;14.70;99.90
10812;DHT22;5458;51.496;7.334;2022-10-31T05:01:52;14.70;99.90
10812;DHT22;5458;51.496;7.334;2022-10-31T05:04:18;14.70;99.90
10812;DHT22;5458;51.496;7.334;2022-10-31T05:06:43;14.70;99.90
10812;DHT22;5458;51.496;7.334;2022-10-31T05:09:09;14.70;99.90
10812;DHT22;5458;51.496;7.334;2022-10-31T05:11:35;14.70;99.90
10812;DHT22;5458;51.496;7.334;2022-10-31T05:14:00;14.70;99.90
10812;DHT22;5458;51.496;7.334;2022-10-31T05:16:26;14.60;99.90
10812;DHT22;5458;51.496;7.334;2022-10-31T05:18:51;14.60;99.90
10812;DHT22;5458;51.496;7.334;2022-10-31T05:21:17;14.60;99.90
10812;DHT22;5458;51.496;7.334;2022-10-31T05:23:42;14.50;99.90
10812;DHT22;5458;51.496;7.334;2022-10-31T05:26:08;14.50;99.90
10812;DHT22;5458;51.496;7.334;2022-10-31T05:28:33;14.50;99.90
10812;DHT22;5458;51.496;7.334;2022-10-31T05:30:59;14.50;99.90
10812;DHT22;5458;51.496;7.334;2022-10-31T05:33:24;14.40;99.90
10812;DHT22;5458;51.496;7.334;2022-10-31T05:35:50;14.40;99.90
10812;DHT22;5458;51.496;7.334;2022-10-31T05:38:16;14.40;99.90
10812;DHT22;5458;51.496;7.334;2022-10-31T05:40:41;14.40;99.90
10812;DHT22;5458;51.496;7.334;2022-10-31T05:43:07;14.40;99.90
10812;DHT22;5458;51.496;7.334;2022-10-31T05:45:33;14.30;99.90
10812;DHT22;5458;51.496;7.334;2022-10-31T05:48:00;14.30;99.90
10812;DHT22;5458;51.496;7.334;2022-10-31T05:50:27;14.30;99.90
10812;DHT22;5458;51.496;7.334;2022-10-31T05:52:57;14.30;99.90
10812;DHT22;5458;51.496;7.334;2022-10-31T05:55:23;14.30;99.90
10812;DHT22;5458;51.496;7.334;2022-10-31T05:57:51;14.30;99.90
10812;DHT22;5458;51.496;7.334;2022-10-31T06:00:17;14.30;99.90
10812;DHT22;5458;51.496;7.334;2022-10-31T06:02:43;14.30;99.90
10812;DHT22;5458;51.496;7.334;2022-10-31T06:05:08;14.30;99.90
10812;DHT22;5458;51.496;7.334;2022-10-31T06:07:35;14.30;99.90
10812;DHT22;5458;51.496;7.334;2022-10-31T06:10:01;14.30;99.90
10812;DHT22;5458;51.496;7.334;2022-10-31T06:12:28;14.30;99.90
10812;DHT22;5458;51.496;7.334;2022-10-31T06:14:53;14.20;99.90
10812;DHT22;5458;51.496;7.334;2022-10-31T06:17:19;14.20;99.90
10812;DHT22;5458;51.496;7.334;2022-10-31T06:19:44;14.20;99.90
10812;DHT22;5458;51.496;7.334;2022-10-31T06:22:10;14.20;99.90
10812;DHT22;5458;51.496;7.334;2022-10-31T06:24:37;14.20;99.90
10812;DHT22;5458;51.496;7.334;2022-10-31T06:27:03;14.20;99.90
10812;DHT22;5458;51.496;7.334;2022-10-31T06:29:29;14.20;99.90
10812;DHT22;5458;51.496;7.334;2022-10-31T06:31:54;14.20;99.90
10812;DHT22;5458;51.496;7.334;2022-10-31T06:34:20;14.20;99.90
10812;DHT22;5458;51.496;7.334;2022-10-31T06:36:46;14.20;99.90
10812;DHT22;5458;51.496;7.334;2022-10-31T06:39:13;14.30;99.90
10812;DHT22;5458;51.496;7.334;2022-10-31T06:41:38;14.30;99.90
10812;DHT22;5458;51.496;7.334;2022-10-31T06:44:05;14.30;99.90
10812;DHT22;5458;51.496;7.334;2022-10-31T06:46:31;14.40;99.90
10812;DHT22;5458;51.496;7.334;2022-10-31T06:48:57;14.50;99.90
10812;DHT22;5458;51.496;7.334;2022-10-31T06:51:22;14.50;99.90
10812;DHT22;5458;51.496;7.334;2022-10-31T06:53:48;14.60;99.90
10812;DHT22;5458;51.496;7.334;2022-10-31T06:56:14;14.70;99.90
10812;DHT22;5458;51.496;7.334;2022-10-31T06:58:39;14.70;99.90
10812;DHT22;5458;51.496;7.334;2022-10-31T07:01:05;14.80;99.90
10812;DHT22;5458;51.496;7.334;2022-10-31T07:03:31;14.90;99.90
10812;DHT22;5458;51.496;7.334;2022-10-31T07:05:56;14.90;99.90
10812;DHT22;5458;51.496;7.334;2022-10-31T07:08:22;15.00;99.90
10812;DHT22;5458;51.496;7.334;2022-10-31T07:10:53;15.00;99.90
10812;DHT22;5458;51.496;7.334;2022-10-31T07:13:19;15.10;99.90
10812;DHT22;5458;51.496;7.334;2022-10-31T07:15:50;15.10;99.90
10812;DHT22;5458;51.496;7.334;2022-10-31T07:18:16;15.20;99.90
10812;DHT22;5458;51.496;7.334;2022-10-31T07:20:41;15.20;99.90
10812;DHT22;5458;51.496;7.334;2022-10-31T07:23:09;15.20;99.90
10812;DHT22;5458;51.496;7.334;2022-10-31T07:25:35;15.30;99.90
10812;DHT22;5458;51.496;7.334;2022-10-31T07:28:00;15.20;99.90
10812;DHT22;5458;51.496;7.334;2022-10-31T07:30:26;15.30;99.90
10812;DHT22;5458;51.496;7.334;2022-10-31T07:32:52;15.30;99.90
10812;DHT22;5458;51.496;7.334;2022-10-31T07:35:23;15.40;99.90
10812;DHT22;5458;51.496;7.334;2022-10-31T07:37:49;15.40;99.90
10812;DHT22;5458;51.496;7.334;2022-10-31T07:40:16;15.50;99.90
10812;DHT22;5458;51.496;7.334;2022-10-31T07:42:43;15.50;99.90
10812;DHT22;5458;51.496;7.334;2022-10-31T07:45:11;15.50;99.90
10812;DHT22;5458;51.496;7.334;2022-10-31T07:47:48;15.60;99.90
10812;DHT22;5458;51.496;7.334;2022-10-31T07:52:47;15.60;99.90
10812;DHT22;5458;51.496;7.334;2022-10-31T07:55:13;15.70;99.90
10812;DHT22;5458;51.496;7.334;2022-10-31T07:57:39;15.70;99.90
10812;DHT22;5458;51.496;7.334;2022-10-31T08:00:06;15.70;99.90
10812;DHT22;5458;51.496;7.334;2022-10-31T08:02:32;15.80;99.90
10812;DHT22;5458;51.496;7.334;2022-10-31T08:04:58;15.80;99.90
10812;DHT22;5458;51.496;7.334;2022-10-31T08:07:25;15.90;99.90
10812;DHT22;5458;51.496;7.334;2022-10-31T08:09:51;15.90;99.90
10812;DHT22;5458;51.496;7.334;2022-10-31T08:12:16;15.90;99.90
10812;DHT22;5458;51.496;7.334;2022-10-31T08:14:42;15.90;99.90
10812;DHT22;5458;51.496;7.334;2022-10-31T08:17:08;16.00;99.90
10812;DHT22;5458;51.496;7.334;2022-10-31T08:19:33;16.00;99.90
10812;DHT22;5458;51.496;7.334;2022-10-31T08:21:59;16.10;99.90
10812;DHT22;5458;51.496;7.334;2022-10-31T08:24:24;16.30;99.90
10812;DHT22;5458;51.496;7.334;2022-10-31T08:26:50;16.60;99.90
10812;DHT22;5458;51.496;7.334;2022-10-31T08:29:16;16.90;99.90
10812;DHT22;5458;51.496;7.334;2022-10-31T08:31:42;17.20;99.90
10812;DHT22;5458;51.496;7.334;2022-10-31T08:34:08;17.40;99.90
10812;DHT22;5458;51.496;7.334;2022-10-31T08:36:34;17.40;99.90
10812;DHT22;5458;51.496;7.334;2022-10-31T08:39:00;17.50;99.90
10812;DHT22;5458;51.496;7.334;2022-10-31T08:41:25;17.60;99.90
10812;DHT22;5458;51.496;7.334;2022-10-31T08:43:51;17.60;99.90
10812;DHT22;5458;51.496;7.334;2022-10-31T08:46:18;17.60;99.90
10812;DHT22;5458;51.496;7.334;2022-10-31T08:48:43;18.00;99.90
10812;DHT22;5458;51.496;7.334;2022-10-31T08:51:10;18.70;99.90
10812;DHT22;5458;51.496;7.334;2022-10-31T08:53:36;19.40;99.90
10812;DHT22;5458;51.496;7.334;2022-10-31T08:56:02;19.90;99.90
10812;DHT22;5458;51.496;7.334;2022-10-31T08:58:27;20.50;99.90
10812;DHT22;5458;51.496;7.334;2022-10-31T09:00:54;21.00;99.90
10812;DHT22;5458;51.496;7.334;2022-10-31T09:03:25;21.50;99.90
10812;DHT22;5458;51.496;7.334;2022-10-31T09:05:55;21.90;99.90
10812;DHT22;5458;51.496;7.334;2022-10-31T09:08:22;22.30;99.50
10812;DHT22;5458;51.496;7.334;2022-10-31T09:10:48;22.70;98.70
10812;DHT22;5458;51.496;7.334;2022-10-31T09:13:16;23.00;98.00
10812;DHT22;5458;51.496;7.334;2022-10-31T09:15:46;23.20;97.10
10812;DHT22;5458;51.496;7.334;2022-10-31T09:18:14;23.40;97.00
10812;DHT22;5458;51.496;7.334;2022-10-31T09:20:41;23.70;96.40
10812;DHT22;5458;51.496;7.334;2022-10-31T09:23:13;24.00;95.80
10812;DHT22;5458;51.496;7.334;2022-10-31T09:25:40;24.30;95.30
10812;DHT22;5458;51.496;7.334;2022-10-31T09:28:08;24.30;94.50
10812;DHT22;5458;51.496;7.334;2022-10-31T09:30:34;23.90;94.80
10812;DHT22;5458;51.496;7.334;2022-10-31T09:33:03;23.50;95.10
10812;DHT22;5458;51.496;7.334;2022-10-31T09:35:28;23.10;95.80
10812;DHT22;5458;51.496;7.334;2022-10-31T09:37:58;22.70;96.20
10812;DHT22;5458;51.496;7.334;2022-10-31T09:40:38;22.20;96.70
10812;DHT22;5458;51.496;7.334;2022-10-31T09:51:23;20.30;99.80
10812;DHT22;5458;51.496;7.334;2022-10-31T09:56:18;19.90;99.90
10812;DHT22;5458;51.496;7.334;2022-10-31T09:58:59;19.70;99.90
10812;DHT22;5458;51.496;7.334;2022-10-31T10:01:39;19.60;99.90
10812;DHT22;5458;51.496;7.334;2022-10-31T10:04:35;19.40;99.90
10812;DHT22;5458;51.496;7.334;2022-10-31T10:07:13;19.30;99.90
10812;DHT22;5458;51.496;7.334;2022-10-31T10:09:42;19.20;99.90
10812;DHT22;5458;51.496;7.334;2022-10-31T10:12:19;19.20;99.90
10812;DHT22;5458;51.496;7.334;2022-10-31T10:17:47;18.90;99.90
10812;DHT22;5458;51.496;7.334;2022-10-31T10:26:10;18.80;99.90
10812;DHT22;5458;51.496;7.334;2022-10-31T10:28:41;18.80;99.90
10812;DHT22;5458;51.496;7.334;2022-10-31T10:31:27;18.90;99.90
10812;DHT22;5458;51.496;7.334;2022-10-31T10:41:44;19.30;99.90
10812;DHT22;5458;51.496;7.334;2022-10-31T10:44:10;19.40;99.90
10812;DHT22;5458;51.496;7.334;2022-10-31T10:46:43;19.60;99.90
10812;DHT22;5458;51.496;7.334;2022-10-31T10:49:45;19.70;99.90
10812;DHT22;5458;51.496;7.334;2022-10-31T10:52:40;19.70;99.90
10812;DHT22;5458;51.496;7.334;2022-10-31T10:58:01;19.90;99.90
10812;DHT22;5458;51.496;7.334;2022-10-31T11:02:56;20.10;99.90
10812;DHT22;5458;51.496;7.334;2022-10-31T11:05:50;20.00;99.90
10812;DHT22;5458;51.496;7.334;2022-10-31T11:08:46;19.80;99.90
10812;DHT22;5458;51.496;7.334;2022-10-31T11:11:29;19.50;99.90
10812;DHT22;5458;51.496;7.334;2022-10-31T11:14:11;19.60;99.90
10812;DHT22;5458;51.496;7.334;2022-10-31T11:16:40;19.50;99.90
10812;DHT22;5458;51.496;7.334;2022-10-31T11:19:25;19.60;99.90
10812;DHT22;5458;51.496;7.334;2022-10-31T11:21:52;19.70;99.90
10812;DHT22;5458;51.496;7.334;2022-10-31T11:24:22;19.60;99.90
10812;DHT22;5458;51.496;7.334;2022-10-31T11:26:50;19.70;99.90
10812;DHT22;5458;51.496;7.334;2022-10-31T11:29:24;19.70;99.90
10812;DHT22;5458;51.496;7.334;2022-10-31T11:31:53;19.80;99.90
10812;DHT22;5458;51.496;7.334;2022-10-31T11:36:54;19.80;99.90
10812;DHT22;5458;51.496;7.334;2022-10-31T11:39:24;19.80;99.90
10812;DHT22;5458;51.496;7.334;2022-10-31T11:41:52;19.80;99.90
10812;DHT22;5458;51.496;7.334;2022-10-31T11:44:20;19.70;99.90
10812;DHT22;5458;51.496;7.334;2022-10-31T11:46:54;19.60;99.90
10812;DHT22;5458;51.496;7.334;2022-10-31T11:49:44;19.60;99.90
10812;DHT22;5458;51.496;7.334;2022-10-31T11:52:17;19.70;99.90
10812;DHT22;5458;51.496;7.334;2022-10-31T11:54:51;19.80;99.90
10812;DHT22;5458;51.496;7.334;2022-10-31T11:57:41;19.90;99.90
10812;DHT22;5458;51.496;7.334;2022-10-31T12:00:25;19.90;99.90
10812;DHT22;5458;51.496;7.334;2022-10-31T12:03:06;20.00;99.90
10812;DHT22;5458;51.496;7.334;2022-10-31T12:05:37;20.00;99.90
10812;DHT22;5458;51.496;7.334;2022-10-31T12:08:03;20.00;99.90
10812;DHT22;5458;51.496;7.334;2022-10-31T12:10:45;20.00;99.90
10812;DHT22;5458;51.496;7.334;2022-10-31T12:13:37;20.00;99.90
10812;DHT22;5458;51.496;7.334;2022-10-31T12:16:22;19.90;99.90
10812;DHT22;5458;51.496;7.334;2022-10-31T12:22:10;19.90;99.90
10812;DHT22;5458;51.496;7.334;2022-10-31T12:30:20;20.00;99.90
10812;DHT22;5458;51.496;7.334;2022-10-31T12:41:45;20.20;99.90
10812;DHT22;5458;51.496;7.334;2022-10-31T12:47:23;20.30;99.90
10812;DHT22;5458;51.496;7.334;2022-10-31T12:57:46;20.20;99.90
10812;DHT22;5458;51.496;7.334;2022-10-31T13:00:16;20.20;99.90
10812;DHT22;5458;51.496;7.334;2022-10-31T13:05:40;20.30;99.90
10812;DHT22;5458;51.496;7.334;2022-10-31T13:08:22;20.20;99.90
10812;DHT22;5458;51.496;7.334;2022-10-31T13:16:26;20.20;99.90
10812;DHT22;5458;51.496;7.334;2022-10-31T13:22:02;20.30;99.90
10812;DHT22;5458;51.496;7.334;2022-10-31T13:24:36;20.40;99.90
10812;DHT22;5458;51.496;7.334;2022-10-31T13:27:09;20.40;99.90
10812;DHT22;5458;51.496;7.334;2022-10-31T13:29:42;20.30;99.90
10812;DHT22;5458;51.496;7.334;2022-10-31T13:32:10;20.20;99.90
10812;DHT22;5458;51.496;7.334;2022-10-31T13:34:39;20.20;99.90
10812;DHT22;5458;51.496;7.334;2022-10-31T13:37:17;20.20;99.90
10812;DHT22;5458;51.496;7.334;2022-10-31T13:43:00;20.30;99.90
10812;DHT22;5458;51.496;7.334;2022-10-31T13:45:28;20.30;99.90
10812;DHT22;5458;51.496;7.334;2022-10-31T13:50:31;20.30;99.90
10812;DHT22;5458;51.496;7.334;2022-10-31T13:56:18;20.30;99.90
10812;DHT22;5458;51.496;7.334;2022-10-31T13:59:04;20.30;99.90
10812;DHT22;5458;51.496;7.334;2022-10-31T14:01:32;20.30;99.90
10812;DHT22;5458;51.496;7.334;2022-10-31T14:04:16;20.30;99.90
10812;DHT22;5458;51.496;7.334;2022-10-31T14:06:49;20.30;99.90
10812;DHT22;5458;51.496;7.334;2022-10-31T14:11:51;20.40;99.90
10812;DHT22;5458;51.496;7.334;2022-10-31T14:14:18;20.40;99.90
10812;DHT22;5458;51.496;7.334;2022-10-31T14:16:46;20.30;99.90
10812;DHT22;5458;51.496;7.334;2022-10-31T14:19:18;20.30;99.90
10812;DHT22;5458;51.496;7.334;2022-10-31T14:21:49;20.30;99.90
10812;DHT22;5458;51.496;7.334;2022-10-31T14:27:32;20.40;99.90
10812;DHT22;5458;51.496;7.334;2022-10-31T14:29:48;20.50;99.90
10812;DHT22;5458;51.496;7.334;2022-10-31T14:32:23;20.50;99.90
10812;DHT22;5458;51.496;7.334;2022-10-31T14:40:14;20.40;99.90
10812;DHT22;5458;51.496;7.334;2022-10-31T14:51:41;20.30;99.90
10812;DHT22;5458;51.496;7.334;2022-10-31T14:54:20;20.30;99.90
10812;DHT22;5458;51.496;7.334;2022-10-31T14:56:52;20.20;99.90
10812;DHT22;5458;51.496;7.334;2022-10-31T14:59:22;20.20;99.90
10812;DHT22;5458;51.496;7.334;2022-10-31T15:02:02;20.20;99.90
10812;DHT22;5458;51.496;7.334;2022-10-31T15:04:34;20.10;99.90
10812;DHT22;5458;51.496;7.334;2022-10-31T15:07:15;20.10;99.90
10812;DHT22;5458;51.496;7.334;2022-10-31T15:09:42;20.10;99.90
10812;DHT22;5458;51.496;7.334;2022-10-31T15:12:26;20.00;99.90
10812;DHT22;5458;51.496;7.334;2022-10-31T15:14:52;20.00;99.90
10812;DHT22;5458;51.496;7.334;2022-10-31T15:17:18;19.90;99.90
10812;DHT22;5458;51.496;7.334;2022-10-31T15:19:45;19.90;99.90
10812;DHT22;5458;51.496;7.334;2022-10-31T15:22:15;19.90;99.90
10812;DHT22;5458;51.496;7.334;2022-10-31T15:24:41;19.90;99.90
10812;DHT22;5458;51.496;7.334;2022-10-31T15:27:12;19.80;99.90
10812;DHT22;5458;51.496;7.334;2022-10-31T15:29:54;19.80;99.90
10812;DHT22;5458;51.496;7.334;2022-10-31T15:32:26;19.80;99.90
10812;DHT22;5458;51.496;7.334;2022-10-31T15:34:54;19.80;99.90
10812;DHT22;5458;51.496;7.334;2022-10-31T15:37:22;19.70;99.90
10812;DHT22;5458;51.496;7.334;2022-10-31T15:39:50;19.70;99.90
10812;DHT22;5458;51.496;7.334;2022-10-31T15:42:28;19.60;99.90
10812;DHT22;5458;51.496;7.334;2022-10-31T15:45:15;19.60;99.90
10812;DHT22;5458;51.496;7.334;2022-10-31T15:47:57;19.60;99.90
10812;DHT22;5458;51.496;7.334;2022-10-31T15:50:28;19.50;99.90
10812;DHT22;5458;51.496;7.334;2022-10-31T15:52:55;19.50;99.90
10812;DHT22;5458;51.496;7.334;2022-10-31T15:55:24;19.40;99.90
10812;DHT22;5458;51.496;7.334;2022-10-31T15:57:56;19.40;99.90
10812;DHT22;5458;51.496;7.334;2022-10-31T16:03:20;19.40;99.90
10812;DHT22;5458;51.496;7.334;2022-10-31T16:05:49;19.30;99.90
10812;DHT22;5458;51.496;7.334;2022-10-31T16:11:15;19.20;99.90
10812;DHT22;5458;51.496;7.334;2022-10-31T16:14:13;19.10;99.90
10812;DHT22;5458;51.496;7.334;2022-10-31T16:16:43;19.10;99.90
10812;DHT22;5458;51.496;7.334;2022-10-31T16:19:31;19.00;99.90
10812;DHT22;5458;51.496;7.334;2022-10-31T16:22:09;18.90;99.90
10812;DHT22;5458;51.496;7.334;2022-10-31T16:24:45;18.90;99.90
10812;DHT22;5458;51.496;7.334;2022-10-31T16:27:23;18.80;99.90
10812;DHT22;5458;51.496;7.334;2022-10-31T16:29:57;18.70;99.90
10812;DHT22;5458;51.496;7.334;2022-10-31T16:32:54;18.70;99.90
10812;DHT22;5458;51.496;7.334;2022-10-31T16:35:31;18.70;99.90
10812;DHT22;5458;51.496;7.334;2022-10-31T16:37:57;18.60;99.90
10812;DHT22;5458;51.496;7.334;2022-10-31T16:40:23;18.50;99.90
10812;DHT22;5458;51.496;7.334;2022-10-31T16:42:49;18.50;99.90
10812;DHT22;5458;51.496;7.334;2022-10-31T16:47:42;18.40;99.90
10812;DHT22;5458;51.496;7.334;2022-10-31T16:50:34;18.30;99.90
10812;DHT22;5458;51.496;7.334;2022-10-31T16:52:59;18.20;99.90
10812;DHT22;5458;51.496;7.334;2022-10-31T16:55:25;18.10;99.90
10812;DHT22;5458;51.496;7.334;2022-10-31T16:57:52;18.00;99.90
10812;DHT22;5458;51.496;7.334;2022-10-31T17:00:22;18.00;99.90
10812;DHT22;5458;51.496;7.334;2022-10-31T17:02:53;17.90;99.90
10812;DHT22;5458;51.496;7.334;2022-10-31T17:05:21;17.90;99.90
10812;DHT22;5458;51.496;7.334;2022-10-31T17:07:47;17.90;99.90
10812;DHT22;5458;51.496;7.334;2022-10-31T17:10:14;17.80;99.90
10812;DHT22;5458;51.496;7.334;2022-10-31T17:12:43;17.80;99.90
10812;DHT22;5458;51.496;7.334;2022-10-31T17:15:34;17.70;99.90
10812;DHT22;5458;51.496;7.334;2022-10-31T17:18:01;17.70;99.90
10812;DHT22;5458;51.496;7.334;2022-10-31T17:20:29;17.60;99.90
10812;DHT22;5458;51.496;7.334;2022-10-31T17:22:56;17.60;99.90
10812;DHT22;5458;51.496;7.334;2022-10-31T17:25:28;17.50;99.90
10812;DHT22;5458;51.496;7.334;2022-10-31T17:27:54;17.50;99.90
10812;DHT22;5458;51.496;7.334;2022-10-31T17:30:21;17.50;99.90
10812;DHT22;5458;51.496;7.334;2022-10-31T17:32:47;17.40;99.90
10812;DHT22;5458;51.496;7.334;2022-10-31T17:35:14;17.40;99.90
10812;DHT22;5458;51.496;7.334;2022-10-31T17:37:41;17.30;99.90
10812;DHT22;5458;51.496;7.334;2022-10-31T17:40:08;17.30;99.90
10812;DHT22;5458;51.496;7.334;2022-10-31T17:42:34;17.30;99.90
10812;DHT22;5458;51.496;7.334;2022-10-31T17:45:00;17.20;99.90
10812;DHT22;5458;51.496;7.334;2022-10-31T17:47:25;17.10;99.90
10812;DHT22;5458;51.496;7.334;2022-10-31T17:49:51;17.20;99.90
10812;DHT22;5458;51.496;7.334;2022-10-31T17:52:18;17.20;99.90
10812;DHT22;5458;51.496;7.334;2022-10-31T17:54:44;17.20;99.90
10812;DHT22;5458;51.496;7.334;2022-10-31T17:57:09;17.20;99.90
10812;DHT22;5458;51.496;7.334;2022-10-31T17:59:35;17.20;99.90
10812;DHT22;5458;51.496;7.334;2022-10-31T18:02:01;17.20;99.90
10812;DHT22;5458;51.496;7.334;2022-10-31T18:04:35;17.30;99.90
10812;DHT22;5458;51.496;7.334;2022-10-31T18:07:01;17.30;99.90
10812;DHT22;5458;51.496;7.334;2022-10-31T18:09:27;17.30;99.90
10812;DHT22;5458;51.496;7.334;2022-10-31T18:11:53;17.30;99.90
10812;DHT22;5458;51.496;7.334;2022-10-31T18:14:19;17.30;99.90
10812;DHT22;5458;51.496;7.334;2022-10-31T18:16:44;17.30;99.90
10812;DHT22;5458;51.496;7.334;2022-10-31T18:19:12;17.40;99.90
10812;DHT22;5458;51.496;7.334;2022-10-31T18:21:38;17.40;99.90
10812;DHT22;5458;51.496;7.334;2022-10-31T18:24:04;17.50;99.90
10812;DHT22;5458;51.496;7.334;2022-10-31T18:26:30;17.50;99.90